Avondale, Kentucky
Current Conditions -  °F | °C
As of 8:53 AM on Monday 24 Nov 2014 (Local Time) from KPAH Reporting Station
Overcast Overcast  
Wind Chill: 39°   Ceiling: 3300
Heat Index: 45°   Visibility: 10mi
Dew Point: 35°   Wind: 14mph
Humidity: 68%   Direction: 250°WSW
Pressure: 29.7"   Gusts: NA
Location:  37.0331°N, 88.716°W
Report Text: KPAH 241453Z 25012KT 10SM OVC033 07/02 A2970 RMK AO2 SLP057 T00720017 51069
Loading
Personal Weather Stations






























Interactive Weather Map New forecast layout! Learn more

10-Day Weather Forecast

Advertisements
Track Severe Weather on mobile